sensor_id;sensor_type;location;lat;lon;timestamp;pressure;altitude;pressure_sealevel;temperature;humidity
53522;BME280;39398;48.382;9.802;2023-03-22T00:00:49;93628.50;;;11.45;78.19
53522;BME280;39398;48.382;9.802;2023-03-22T00:05:56;93630.94;;;11.59;77.27
53522;BME280;39398;48.382;9.802;2023-03-22T00:10:59;93638.03;;;11.06;79.23
53522;BME280;39398;48.382;9.802;2023-03-22T00:16:00;93647.13;;;10.77;82.33
53522;BME280;39398;48.382;9.802;2023-03-22T00:21:02;93641.84;;;10.83;83.38
53522;BME280;39398;48.382;9.802;2023-03-22T00:26:06;93638.94;;;10.65;83.72
53522;BME280;39398;48.382;9.802;2023-03-22T00:31:09;93632.81;;;10.51;83.93
53522;BME280;39398;48.382;9.802;2023-03-22T00:36:11;93631.75;;;10.39;80.50
53522;BME280;39398;48.382;9.802;2023-03-22T00:41:15;93627.19;;;10.74;77.18
53522;BME280;39398;48.382;9.802;2023-03-22T00:46:19;93626.66;;;11.05;74.71
53522;BME280;39398;48.382;9.802;2023-03-22T00:51:21;93617.72;;;11.13;77.36
53522;BME280;39398;48.382;9.802;2023-03-22T00:56:24;93610.41;;;11.28;76.84
53522;BME280;39398;48.382;9.802;2023-03-22T01:01:25;93613.66;;;11.30;75.06
53522;BME280;39398;48.382;9.802;2023-03-22T01:06:27;93613.44;;;10.85;75.87
53522;BME280;39398;48.382;9.802;2023-03-22T01:11:29;93614.66;;;10.96;76.45
53522;BME280;39398;48.382;9.802;2023-03-22T01:16:31;93603.47;;;11.01;75.59
53522;BME280;39398;48.382;9.802;2023-03-22T01:21:33;93609.19;;;10.98;74.14
53522;BME280;39398;48.382;9.802;2023-03-22T01:26:36;93603.44;;;10.81;75.27
53522;BME280;39398;48.382;9.802;2023-03-22T01:31:37;93600.63;;;10.76;74.86
53522;BME280;39398;48.382;9.802;2023-03-22T01:36:39;93594.03;;;10.52;76.68
53522;BME280;39398;48.382;9.802;2023-03-22T01:41:42;93583.25;;;10.40;76.68
53522;BME280;39398;48.382;9.802;2023-03-22T01:46:44;93580.88;;;10.10;79.13
53522;BME280;39398;48.382;9.802;2023-03-22T01:51:48;93579.69;;;10.13;78.62
53522;BME280;39398;48.382;9.802;2023-03-22T01:56:52;93572.63;;;9.78;80.88
53522;BME280;39398;48.382;9.802;2023-03-22T02:01:54;93575.56;;;9.97;79.96
53522;BME280;39398;48.382;9.802;2023-03-22T02:06:57;93579.59;;;9.93;79.78
53522;BME280;39398;48.382;9.802;2023-03-22T02:12:07;93576.22;;;10.06;79.04
53522;BME280;39398;48.382;9.802;2023-03-22T02:17:18;93573.72;;;10.39;76.94
53522;BME280;39398;48.382;9.802;2023-03-22T02:22:46;93571.91;;;10.53;78.15
53522;BME280;39398;48.382;9.802;2023-03-22T02:28:17;93567.25;;;10.55;76.27
53522;BME280;39398;48.382;9.802;2023-03-22T02:33:52;93565.81;;;10.52;75.55
53522;BME280;39398;48.382;9.802;2023-03-22T02:39:06;93565.78;;;10.39;75.92
53522;BME280;39398;48.382;9.802;2023-03-22T02:44:14;93555.47;;;10.44;76.13
53522;BME280;39398;48.382;9.802;2023-03-22T02:49:22;93554.03;;;10.48;75.95
53522;BME280;39398;48.382;9.802;2023-03-22T02:54:32;93543.88;;;10.45;75.45
53522;BME280;39398;48.382;9.802;2023-03-22T02:59:37;93543.88;;;10.38;76.29
53522;BME280;39398;48.382;9.802;2023-03-22T03:04:43;93546.03;;;10.15;78.88
53522;BME280;39398;48.382;9.802;2023-03-22T03:09:49;93545.13;;;10.01;81.13
53522;BME280;39398;48.382;9.802;2023-03-22T03:14:51;93550.38;;;9.88;81.17
53522;BME280;39398;48.382;9.802;2023-03-22T03:20:03;93545.41;;;9.71;84.16
53522;BME280;39398;48.382;9.802;2023-03-22T03:25:17;93541.91;;;9.58;85.38
53522;BME280;39398;48.382;9.802;2023-03-22T03:30:25;93537.59;;;9.50;85.24
53522;BME280;39398;48.382;9.802;2023-03-22T03:35:32;93541.31;;;9.62;83.63
53522;BME280;39398;48.382;9.802;2023-03-22T03:40:39;93528.09;;;9.55;83.96
53522;BME280;39398;48.382;9.802;2023-03-22T03:45:43;93535.34;;;9.47;84.75
53522;BME280;39398;48.382;9.802;2023-03-22T03:50:45;93533.75;;;9.52;84.72
53522;BME280;39398;48.382;9.802;2023-03-22T03:55:49;93537.66;;;9.63;82.60
53522;BME280;39398;48.382;9.802;2023-03-22T04:00:51;93559.03;;;9.12;86.78
53522;BME280;39398;48.382;9.802;2023-03-22T04:05:52;93554.31;;;8.79;89.49
53522;BME280;39398;48.382;9.802;2023-03-22T04:10:55;93562.00;;;9.02;91.83
53522;BME280;39398;48.382;9.802;2023-03-22T04:15:56;93563.84;;;8.80;93.32
53522;BME280;39398;48.382;9.802;2023-03-22T04:20:58;93563.34;;;8.92;92.39
53522;BME280;39398;48.382;9.802;2023-03-22T04:26:01;93573.13;;;8.76;92.68
53522;BME280;39398;48.382;9.802;2023-03-22T04:31:02;93563.25;;;9.06;90.64
53522;BME280;39398;48.382;9.802;2023-03-22T04:36:05;93554.69;;;8.98;91.08
53522;BME280;39398;48.382;9.802;2023-03-22T04:41:09;93557.53;;;9.03;90.83
53522;BME280;39398;48.382;9.802;2023-03-22T04:46:10;93544.16;;;8.98;93.10
53522;BME280;39398;48.382;9.802;2023-03-22T04:51:12;93549.63;;;9.03;94.00
53522;BME280;39398;48.382;9.802;2023-03-22T04:56:15;93547.47;;;9.06;91.57
53522;BME280;39398;48.382;9.802;2023-03-22T05:01:17;93544.31;;;8.96;91.38
53522;BME280;39398;48.382;9.802;2023-03-22T05:06:19;93542.31;;;8.98;89.90
53522;BME280;39398;48.382;9.802;2023-03-22T05:11:22;93545.97;;;8.97;90.32
53522;BME280;39398;48.382;9.802;2023-03-22T05:16:24;93551.34;;;8.89;90.72
53522;BME280;39398;48.382;9.802;2023-03-22T05:21:25;93553.22;;;8.95;87.97
53522;BME280;39398;48.382;9.802;2023-03-22T05:26:28;93550.44;;;8.75;92.71
53522;BME280;39398;48.382;9.802;2023-03-22T05:31:29;93555.38;;;8.64;93.08
53522;BME280;39398;48.382;9.802;2023-03-22T05:36:31;93558.56;;;8.80;88.82
53522;BME280;39398;48.382;9.802;2023-03-22T05:41:34;93553.06;;;8.97;89.16
53522;BME280;39398;48.382;9.802;2023-03-22T05:46:37;93551.03;;;8.77;89.68
53522;BME280;39398;48.382;9.802;2023-03-22T05:51:39;93554.09;;;8.53;94.54
53522;BME280;39398;48.382;9.802;2023-03-22T05:56:41;93555.53;;;8.55;95.00
53522;BME280;39398;48.382;9.802;2023-03-22T06:01:43;93557.63;;;8.45;96.33
53522;BME280;39398;48.382;9.802;2023-03-22T06:06:44;93554.78;;;8.61;96.34
53522;BME280;39398;48.382;9.802;2023-03-22T06:11:47;93555.81;;;8.89;96.18
53522;BME280;39398;48.382;9.802;2023-03-22T06:16:49;93550.66;;;9.30;93.90
53522;BME280;39398;48.382;9.802;2023-03-22T06:21:50;93549.13;;;9.42;92.91
53522;BME280;39398;48.382;9.802;2023-03-22T06:26:53;93539.53;;;9.35;94.08
53522;BME280;39398;48.382;9.802;2023-03-22T06:31:55;93539.13;;;9.38;95.45
53522;BME280;39398;48.382;9.802;2023-03-22T06:36:56;93542.06;;;9.49;93.95
53522;BME280;39398;48.382;9.802;2023-03-22T06:41:59;93540.31;;;9.70;92.70
53522;BME280;39398;48.382;9.802;2023-03-22T06:47:01;93540.66;;;9.95;92.42
53522;BME280;39398;48.382;9.802;2023-03-22T06:52:03;93540.69;;;10.08;90.94
53522;BME280;39398;48.382;9.802;2023-03-22T06:57:06;93548.53;;;10.36;89.69
53522;BME280;39398;48.382;9.802;2023-03-22T07:02:10;93546.50;;;10.38;90.11
53522;BME280;39398;48.382;9.802;2023-03-22T07:07:11;93544.09;;;10.43;89.15
53522;BME280;39398;48.382;9.802;2023-03-22T07:12:14;93537.03;;;10.77;88.28
53522;BME280;39398;48.382;9.802;2023-03-22T07:17:16;93541.09;;;10.86;86.74
53522;BME280;39398;48.382;9.802;2023-03-22T07:22:18;93547.59;;;11.04;86.02
53522;BME280;39398;48.382;9.802;2023-03-22T07:27:20;93540.50;;;11.11;85.62
53522;BME280;39398;48.382;9.802;2023-03-22T07:32:22;93545.16;;;11.35;83.83
53522;BME280;39398;48.382;9.802;2023-03-22T07:37:24;93561.00;;;11.49;82.99
53522;BME280;39398;48.382;9.802;2023-03-22T07:42:26;93558.78;;;10.86;84.19
53522;BME280;39398;48.382;9.802;2023-03-22T07:47:28;93564.66;;;11.41;82.46
53522;BME280;39398;48.382;9.802;2023-03-22T07:52:41;93558.72;;;11.85;80.27
53522;BME280;39398;48.382;9.802;2023-03-22T07:57:44;93559.50;;;11.86;79.35
53522;BME280;39398;48.382;9.802;2023-03-22T08:02:46;93560.50;;;12.43;74.75
53522;BME280;39398;48.382;9.802;2023-03-22T08:07:47;93552.44;;;12.63;72.57
53522;BME280;39398;48.382;9.802;2023-03-22T08:12:50;93548.00;;;12.89;70.50
53522;BME280;39398;48.382;9.802;2023-03-22T08:17:52;93556.41;;;13.11;69.18
53522;BME280;39398;48.382;9.802;2023-03-22T08:22:54;93555.00;;;12.83;68.43
53522;BME280;39398;48.382;9.802;2023-03-22T08:27:56;93550.47;;;13.65;66.00
53522;BME280;39398;48.382;9.802;2023-03-22T08:32:58;93551.66;;;14.06;61.09
53522;BME280;39398;48.382;9.802;2023-03-22T08:38:00;93555.84;;;14.32;61.43
53522;BME280;39398;48.382;9.802;2023-03-22T08:43:03;93560.63;;;14.91;60.73
53522;BME280;39398;48.382;9.802;2023-03-22T08:48:05;93575.44;;;14.98;59.25
53522;BME280;39398;48.382;9.802;2023-03-22T08:53:07;93570.69;;;15.42;58.33
53522;BME280;39398;48.382;9.802;2023-03-22T08:58:10;93566.19;;;15.54;54.51
53522;BME280;39398;48.382;9.802;2023-03-22T09:03:12;93559.28;;;15.11;55.91
53522;BME280;39398;48.382;9.802;2023-03-22T09:08:13;93554.91;;;15.17;56.53
53522;BME280;39398;48.382;9.802;2023-03-22T09:13:21;93553.81;;;14.95;58.01
53522;BME280;39398;48.382;9.802;2023-03-22T09:18:24;93553.31;;;15.28;58.04
53522;BME280;39398;48.382;9.802;2023-03-22T09:23:25;93549.31;;;15.84;58.14
53522;BME280;39398;48.382;9.802;2023-03-22T09:28:29;93557.94;;;15.44;56.47
53522;BME280;39398;48.382;9.802;2023-03-22T09:33:31;93553.75;;;15.67;56.60
53522;BME280;39398;48.382;9.802;2023-03-22T09:38:32;93543.59;;;15.33;57.85
53522;BME280;39398;48.382;9.802;2023-03-22T09:43:39;93535.72;;;15.15;59.11
53522;BME280;39398;48.382;9.802;2023-03-22T09:48:43;93523.03;;;15.64;60.10
53522;BME280;39398;48.382;9.802;2023-03-22T09:53:48;93510.97;;;15.15;57.53
53522;BME280;39398;48.382;9.802;2023-03-22T09:58:58;93522.09;;;15.47;59.07
53522;BME280;39398;48.382;9.802;2023-03-22T10:04:13;93510.78;;;15.75;57.58
53522;BME280;39398;48.382;9.802;2023-03-22T10:09:25;93506.28;;;15.75;55.86
53522;BME280;39398;48.382;9.802;2023-03-22T10:14:34;93490.88;;;15.66;56.22
53522;BME280;39398;48.382;9.802;2023-03-22T10:19:45;93497.34;;;15.34;58.14
53522;BME280;39398;48.382;9.802;2023-03-22T10:24:50;93491.47;;;15.79;57.28
53522;BME280;39398;48.382;9.802;2023-03-22T10:29:56;93486.63;;;15.76;57.78
53522;BME280;39398;48.382;9.802;2023-03-22T10:34:59;93484.63;;;15.95;57.80
53522;BME280;39398;48.382;9.802;2023-03-22T10:40:02;93493.97;;;16.38;56.85
53522;BME280;39398;48.382;9.802;2023-03-22T10:45:10;93484.03;;;15.93;57.35
53522;BME280;39398;48.382;9.802;2023-03-22T10:50:17;93474.97;;;16.46;56.86
53522;BME280;39398;48.382;9.802;2023-03-22T10:55:19;93477.22;;;16.55;55.01
53522;BME280;39398;48.382;9.802;2023-03-22T11:00:23;93467.16;;;16.57;52.84
53522;BME280;39398;48.382;9.802;2023-03-22T11:05:26;93461.22;;;15.86;56.52
53522;BME280;39398;48.382;9.802;2023-03-22T11:10:30;93456.56;;;16.04;55.20
53522;BME280;39398;48.382;9.802;2023-03-22T11:15:35;93463.38;;;16.69;55.12
53522;BME280;39398;48.382;9.802;2023-03-22T11:20:39;93449.94;;;16.76;54.71
53522;BME280;39398;48.382;9.802;2023-03-22T11:25:44;93448.63;;;16.79;53.09
53522;BME280;39398;48.382;9.802;2023-03-22T11:31:00;93435.91;;;16.69;55.79
53522;BME280;39398;48.382;9.802;2023-03-22T11:36:04;93441.97;;;16.36;55.68
53522;BME280;39398;48.382;9.802;2023-03-22T11:41:20;93427.84;;;16.35;54.49
53522;BME280;39398;48.382;9.802;2023-03-22T11:46:24;93420.22;;;16.56;52.77
53522;BME280;39398;48.382;9.802;2023-03-22T11:51:28;93416.22;;;16.70;52.53
53522;BME280;39398;48.382;9.802;2023-03-22T11:56:30;93414.97;;;16.61;51.80
53522;BME280;39398;48.382;9.802;2023-03-22T12:01:39;93412.47;;;16.71;51.92
53522;BME280;39398;48.382;9.802;2023-03-22T12:06:43;93408.09;;;16.77;51.90
53522;BME280;39398;48.382;9.802;2023-03-22T12:11:47;93405.59;;;16.41;52.79
53522;BME280;39398;48.382;9.802;2023-03-22T12:16:55;93400.78;;;16.72;49.08
53522;BME280;39398;48.382;9.802;2023-03-22T12:21:58;93381.22;;;16.49;50.72
53522;BME280;39398;48.382;9.802;2023-03-22T12:27:05;93382.81;;;16.79;51.45
53522;BME280;39398;48.382;9.802;2023-03-22T12:32:14;93383.66;;;16.51;50.67
53522;BME280;39398;48.382;9.802;2023-03-22T12:37:21;93367.88;;;16.33;52.96
53522;BME280;39398;48.382;9.802;2023-03-22T12:42:29;93368.75;;;17.01;52.41
53522;BME280;39398;48.382;9.802;2023-03-22T12:47:39;93362.97;;;16.58;50.37
53522;BME280;39398;48.382;9.802;2023-03-22T12:52:44;93352.94;;;16.65;52.81
53522;BME280;39398;48.382;9.802;2023-03-22T12:57:47;93360.91;;;17.55;52.17
53522;BME280;39398;48.382;9.802;2023-03-22T13:02:56;93359.00;;;17.50;48.59
53522;BME280;39398;48.382;9.802;2023-03-22T13:07:59;93348.22;;;17.40;49.75
53522;BME280;39398;48.382;9.802;2023-03-22T13:13:17;93334.72;;;16.74;51.34
53522;BME280;39398;48.382;9.802;2023-03-22T13:18:56;93349.06;;;17.24;47.07
53522;BME280;39398;48.382;9.802;2023-03-22T13:24:00;93347.84;;;17.53;50.01
53522;BME280;39398;48.382;9.802;2023-03-22T13:29:21;93332.50;;;17.43;48.55
53522;BME280;39398;48.382;9.802;2023-03-22T13:34:35;93330.84;;;16.99;49.04
53522;BME280;39398;48.382;9.802;2023-03-22T13:39:39;93324.22;;;16.84;50.63
53522;BME280;39398;48.382;9.802;2023-03-22T13:44:40;93334.16;;;16.89;49.75
53522;BME280;39398;48.382;9.802;2023-03-22T13:49:47;93330.44;;;16.90;49.12
53522;BME280;39398;48.382;9.802;2023-03-22T13:54:49;93317.59;;;16.87;49.74
53522;BME280;39398;48.382;9.802;2023-03-22T14:00:00;93305.34;;;16.86;51.79
53522;BME280;39398;48.382;9.802;2023-03-22T14:05:17;93319.78;;;17.51;49.68
53522;BME280;39398;48.382;9.802;2023-03-22T14:10:23;93312.81;;;17.28;50.06
53522;BME280;39398;48.382;9.802;2023-03-22T14:15:30;93308.41;;;17.82;48.15
53522;BME280;39398;48.382;9.802;2023-03-22T14:20:36;93302.09;;;17.44;48.47
53522;BME280;39398;48.382;9.802;2023-03-22T14:25:39;93294.84;;;17.40;46.71
53522;BME280;39398;48.382;9.802;2023-03-22T14:30:39;93295.34;;;17.59;48.16
53522;BME280;39398;48.382;9.802;2023-03-22T14:35:44;93286.47;;;17.31;46.26
53522;BME280;39398;48.382;9.802;2023-03-22T14:40:46;93277.88;;;17.29;47.05
53522;BME280;39398;48.382;9.802;2023-03-22T14:45:46;93275.28;;;17.12;47.85
53522;BME280;39398;48.382;9.802;2023-03-22T14:50:51;93270.06;;;17.44;46.81
53522;BME280;39398;48.382;9.802;2023-03-22T14:55:52;93268.16;;;17.62;46.80
53522;BME280;39398;48.382;9.802;2023-03-22T15:00:53;93270.38;;;17.48;45.95
53522;BME280;39398;48.382;9.802;2023-03-22T15:05:55;93267.06;;;17.63;45.83
53522;BME280;39398;48.382;9.802;2023-03-22T15:10:57;93260.81;;;17.74;45.90
53522;BME280;39398;48.382;9.802;2023-03-22T15:15:58;93258.59;;;17.22;44.66
53522;BME280;39398;48.382;9.802;2023-03-22T15:21:02;93256.69;;;17.39;43.98
53522;BME280;39398;48.382;9.802;2023-03-22T15:26:06;93248.38;;;17.14;43.46
53522;BME280;39398;48.382;9.802;2023-03-22T15:31:18;93255.63;;;17.67;43.81
53522;BME280;39398;48.382;9.802;2023-03-22T15:36:22;93263.94;;;17.22;40.01
53522;BME280;39398;48.382;9.802;2023-03-22T15:41:25;93257.66;;;16.89;41.01
53522;BME280;39398;48.382;9.802;2023-03-22T15:46:28;93255.88;;;16.95;40.36
53522;BME280;39398;48.382;9.802;2023-03-22T15:51:32;93257.34;;;16.86;40.79
53522;BME280;39398;48.382;9.802;2023-03-22T15:56:37;93255.66;;;16.80;40.82
53522;BME280;39398;48.382;9.802;2023-03-22T16:01:41;93257.09;;;16.87;40.67
53522;BME280;39398;48.382;9.802;2023-03-22T16:06:43;93264.31;;;17.31;40.71
53522;BME280;39398;48.382;9.802;2023-03-22T16:11:44;93269.22;;;17.17;39.55
53522;BME280;39398;48.382;9.802;2023-03-22T16:16:46;93264.00;;;17.27;41.51
53522;BME280;39398;48.382;9.802;2023-03-22T16:21:48;93271.50;;;17.30;41.13
53522;BME280;39398;48.382;9.802;2023-03-22T16:26:48;93269.75;;;16.97;42.58
53522;BME280;39398;48.382;9.802;2023-03-22T16:31:49;93265.47;;;16.40;38.27
53522;BME280;39398;48.382;9.802;2023-03-22T16:36:51;93266.88;;;15.97;40.24
53522;BME280;39398;48.382;9.802;2023-03-22T16:41:51;93276.09;;;16.07;39.85
53522;BME280;39398;48.382;9.802;2023-03-22T16:46:51;93279.88;;;15.65;39.27
53522;BME280;39398;48.382;9.802;2023-03-22T16:51:53;93286.38;;;15.29;39.73
53522;BME280;39398;48.382;9.802;2023-03-22T16:56:54;93286.63;;;15.16;39.38
53522;BME280;39398;48.382;9.802;2023-03-22T17:01:54;93293.34;;;15.06;41.46
53522;BME280;39398;48.382;9.802;2023-03-22T17:06:56;93304.91;;;15.00;41.79
53522;BME280;39398;48.382;9.802;2023-03-22T17:11:57;93308.78;;;15.33;40.48
53522;BME280;39398;48.382;9.802;2023-03-22T17:16:57;93308.16;;;15.43;37.86
53522;BME280;39398;48.382;9.802;2023-03-22T17:21:59;93322.88;;;15.33;37.91
53522;BME280;39398;48.382;9.802;2023-03-22T17:26:59;93325.97;;;15.42;38.50
53522;BME280;39398;48.382;9.802;2023-03-22T17:32:04;93329.19;;;15.44;38.40
53522;BME280;39398;48.382;9.802;2023-03-22T17:37:06;93328.25;;;15.10;39.34
53522;BME280;39398;48.382;9.802;2023-03-22T17:42:10;93331.97;;;14.97;38.94
53522;BME280;39398;48.382;9.802;2023-03-22T17:47:12;93331.63;;;14.82;39.91
53522;BME280;39398;48.382;9.802;2023-03-22T17:52:14;93330.56;;;14.83;40.73
53522;BME280;39398;48.382;9.802;2023-03-22T17:57:15;93338.31;;;14.61;40.81
53522;BME280;39398;48.382;9.802;2023-03-22T18:02:16;93337.97;;;14.81;39.97
53522;BME280;39398;48.382;9.802;2023-03-22T18:07:18;93339.81;;;14.69;39.96
53522;BME280;39398;48.382;9.802;2023-03-22T18:12:18;93340.28;;;14.65;40.09
53522;BME280;39398;48.382;9.802;2023-03-22T18:17:19;93347.34;;;14.18;40.72
53522;BME280;39398;48.382;9.802;2023-03-22T18:22:20;93351.22;;;14.04;42.20
53522;BME280;39398;48.382;9.802;2023-03-22T18:27:21;93349.00;;;14.01;41.92
53522;BME280;39398;48.382;9.802;2023-03-22T18:32:21;93351.94;;;13.81;42.95
53522;BME280;39398;48.382;9.802;2023-03-22T18:37:23;93361.31;;;13.83;43.25
53522;BME280;39398;48.382;9.802;2023-03-22T18:42:24;93352.44;;;13.59;43.79
53522;BME280;39398;48.382;9.802;2023-03-22T18:47:24;93347.25;;;13.34;44.37
53522;BME280;39398;48.382;9.802;2023-03-22T18:52:26;93354.94;;;13.72;42.75
53522;BME280;39398;48.382;9.802;2023-03-22T18:57:27;93362.97;;;13.66;42.92
53522;BME280;39398;48.382;9.802;2023-03-22T19:02:28;93368.41;;;13.71;42.87
53522;BME280;39398;48.382;9.802;2023-03-22T19:07:30;93359.09;;;13.80;42.40
53522;BME280;39398;48.382;9.802;2023-03-22T19:12:31;93358.94;;;13.75;42.18
53522;BME280;39398;48.382;9.802;2023-03-22T19:17:33;93352.75;;;13.81;42.49
53522;BME280;39398;48.382;9.802;2023-03-22T19:22:35;93351.69;;;13.70;43.21
53522;BME280;39398;48.382;9.802;2023-03-22T19:27:35;93353.19;;;13.78;42.22
53522;BME280;39398;48.382;9.802;2023-03-22T19:32:36;93349.19;;;13.57;42.38
53522;BME280;39398;48.382;9.802;2023-03-22T19:37:39;93353.88;;;13.73;42.73
53522;BME280;39398;48.382;9.802;2023-03-22T19:42:40;93354.25;;;13.77;43.10
53522;BME280;39398;48.382;9.802;2023-03-22T19:47:41;93348.34;;;13.75;43.17
53522;BME280;39398;48.382;9.802;2023-03-22T19:52:43;93346.91;;;13.61;43.49
53522;BME280;39398;48.382;9.802;2023-03-22T19:57:43;93344.88;;;13.44;43.13
53522;BME280;39398;48.382;9.802;2023-03-22T20:02:44;93343.84;;;13.45;43.71
53522;BME280;39398;48.382;9.802;2023-03-22T20:07:48;93343.25;;;13.43;44.17
53522;BME280;39398;48.382;9.802;2023-03-22T20:12:49;93345.31;;;13.41;43.81
53522;BME280;39398;48.382;9.802;2023-03-22T20:17:49;93342.22;;;13.44;44.15
53522;BME280;39398;48.382;9.802;2023-03-22T20:22:51;93347.47;;;13.33;44.35
53522;BME280;39398;48.382;9.802;2023-03-22T20:27:52;93349.09;;;13.34;44.66
53522;BME280;39398;48.382;9.802;2023-03-22T20:32:52;93342.97;;;13.33;44.88
53522;BME280;39398;48.382;9.802;2023-03-22T20:37:54;93340.00;;;13.23;45.40
53522;BME280;39398;48.382;9.802;2023-03-22T20:42:54;93352.03;;;13.25;45.88
53522;BME280;39398;48.382;9.802;2023-03-22T20:47:55;93347.34;;;13.28;45.81
53522;BME280;39398;48.382;9.802;2023-03-22T20:52:57;93358.53;;;13.23;45.66
53522;BME280;39398;48.382;9.802;2023-03-22T20:57:57;93350.59;;;13.23;45.86
53522;BME280;39398;48.382;9.802;2023-03-22T21:02:58;93352.28;;;13.17;46.21
53522;BME280;39398;48.382;9.802;2023-03-22T21:08:00;93353.31;;;13.16;46.96
53522;BME280;39398;48.382;9.802;2023-03-22T21:13:00;93345.38;;;13.16;47.57
53522;BME280;39398;48.382;9.802;2023-03-22T21:18:01;93344.56;;;13.16;46.11
53522;BME280;39398;48.382;9.802;2023-03-22T21:23:02;93338.91;;;13.12;47.00
53522;BME280;39398;48.382;9.802;2023-03-22T21:28:03;93340.38;;;13.08;46.79
53522;BME280;39398;48.382;9.802;2023-03-22T21:33:04;93340.50;;;12.95;47.90
53522;BME280;39398;48.382;9.802;2023-03-22T21:38:06;93349.50;;;12.94;47.73
53522;BME280;39398;48.382;9.802;2023-03-22T21:43:06;93346.88;;;12.69;48.37
53522;BME280;39398;48.382;9.802;2023-03-22T21:48:07;93346.97;;;12.80;48.81
53522;BME280;39398;48.382;9.802;2023-03-22T21:53:09;93340.28;;;12.78;49.15
53522;BME280;39398;48.382;9.802;2023-03-22T21:58:09;93334.69;;;12.68;50.32
53522;BME280;39398;48.382;9.802;2023-03-22T22:03:10;93343.00;;;12.71;50.56
53522;BME280;39398;48.382;9.802;2023-03-22T22:08:12;93352.34;;;12.24;51.84
53522;BME280;39398;48.382;9.802;2023-03-22T22:13:13;93359.38;;;12.37;52.04
53522;BME280;39398;48.382;9.802;2023-03-22T22:18:13;93346.75;;;12.39;51.32
53522;BME280;39398;48.382;9.802;2023-03-22T22:23:15;93350.94;;;12.46;51.63
53522;BME280;39398;48.382;9.802;2023-03-22T22:28:15;93349.41;;;12.39;52.97
53522;BME280;39398;48.382;9.802;2023-03-22T22:33:16;93358.19;;;12.32;54.48
53522;BME280;39398;48.382;9.802;2023-03-22T22:38:18;93351.25;;;12.38;54.02
53522;BME280;39398;48.382;9.802;2023-03-22T22:43:18;93351.13;;;12.26;53.79
53522;BME280;39398;48.382;9.802;2023-03-22T22:48:19;93354.19;;;12.23;55.22
53522;BME280;39398;48.382;9.802;2023-03-22T22:53:21;93351.72;;;12.28;55.16
53522;BME280;39398;48.382;9.802;2023-03-22T22:58:21;93361.03;;;12.31;54.83
53522;BME280;39398;48.382;9.802;2023-03-22T23:03:22;93354.28;;;12.10;55.83
53522;BME280;39398;48.382;9.802;2023-03-22T23:08:24;93353.59;;;12.21;56.10
53522;BME280;39398;48.382;9.802;2023-03-22T23:13:25;93351.47;;;12.05;56.71
53522;BME280;39398;48.382;9.802;2023-03-22T23:18:26;93349.25;;;12.02;56.04
53522;BME280;39398;48.382;9.802;2023-03-22T23:23:28;93346.03;;;12.25;54.70
53522;BME280;39398;48.382;9.802;2023-03-22T23:28:28;93341.28;;;12.33;54.31
53522;BME280;39398;48.382;9.802;2023-03-22T23:33:29;93350.88;;;12.28;53.68
53522;BME280;39398;48.382;9.802;2023-03-22T23:38:31;93348.19;;;12.34;52.85
53522;BME280;39398;48.382;9.802;2023-03-22T23:43:31;93344.63;;;12.47;51.73
53522;BME280;39398;48.382;9.802;2023-03-22T23:48:31;93340.16;;;12.48;53.47
53522;BME280;39398;48.382;9.802;2023-03-22T23:53:33;93340.97;;;12.48;52.80
53522;BME280;39398;48.382;9.802;2023-03-22T23:58:35;93346.81;;;12.32;53.47
